sensor_id;sensor_type;location;lat;lon;timestamp;pressure;altitude;pressure_sealevel;temperature;humidity
15674;BME280;7937;48.090;16.212;2023-05-11T00:02:06;97656.91;;;12.28;63.71
15674;BME280;7937;48.090;16.212;2023-05-11T00:05:09;97647.50;;;12.25;63.90
15674;BME280;7937;48.090;16.212;2023-05-11T00:08:12;97645.38;;;12.22;64.45
15674;BME280;7937;48.090;16.212;2023-05-11T00:11:17;97647.72;;;12.19;64.94
15674;BME280;7937;48.090;16.212;2023-05-11T00:14:19;97647.16;;;12.17;64.36
15674;BME280;7937;48.090;16.212;2023-05-11T00:17:21;97645.28;;;12.12;64.58
15674;BME280;7937;48.090;16.212;2023-05-11T00:20:24;97652.72;;;12.10;64.96
15674;BME280;7937;48.090;16.212;2023-05-11T00:23:26;97640.69;;;12.07;64.55
15674;BME280;7937;48.090;16.212;2023-05-11T00:26:28;97642.47;;;12.02;65.98
15674;BME280;7937;48.090;16.212;2023-05-11T00:29:30;97645.34;;;11.95;66.58
15674;BME280;7937;48.090;16.212;2023-05-11T00:32:32;97641.88;;;11.95;65.27
15674;BME280;7937;48.090;16.212;2023-05-11T00:35:35;97642.69;;;11.95;65.01
15674;BME280;7937;48.090;16.212;2023-05-11T00:38:37;97637.09;;;11.97;64.75
15674;BME280;7937;48.090;16.212;2023-05-11T00:41:42;97636.28;;;11.96;65.23
15674;BME280;7937;48.090;16.212;2023-05-11T00:44:44;97633.59;;;11.96;64.11
15674;BME280;7937;48.090;16.212;2023-05-11T00:47:46;97627.69;;;11.89;64.59
15674;BME280;7937;48.090;16.212;2023-05-11T00:50:49;97635.47;;;11.96;64.56
15674;BME280;7937;48.090;16.212;2023-05-11T00:53:51;97638.66;;;11.93;64.63
15674;BME280;7937;48.090;16.212;2023-05-11T00:56:53;97646.41;;;11.94;65.46
15674;BME280;7937;48.090;16.212;2023-05-11T00:59:56;97643.44;;;11.91;65.01
15674;BME280;7937;48.090;16.212;2023-05-11T01:03:00;97636.75;;;11.88;64.83
15674;BME280;7937;48.090;16.212;2023-05-11T01:06:43;97640.44;;;11.87;65.67
15674;BME280;7937;48.090;16.212;2023-05-11T01:13:30;97632.38;;;11.82;65.56
15674;BME280;7937;48.090;16.212;2023-05-11T01:16:36;97635.06;;;11.82;65.05
15674;BME280;7937;48.090;16.212;2023-05-11T01:19:55;97627.28;;;11.80;65.21
15674;BME280;7937;48.090;16.212;2023-05-11T01:33:36;97633.03;;;11.72;64.66
15674;BME280;7937;48.090;16.212;2023-05-11T01:36:51;97624.50;;;11.70;65.04
15674;BME280;7937;48.090;16.212;2023-05-11T01:39:57;97628.91;;;11.59;65.53
15674;BME280;7937;48.090;16.212;2023-05-11T01:43:03;97634.19;;;11.54;66.67
15674;BME280;7937;48.090;16.212;2023-05-11T01:46:08;97633.63;;;11.52;66.24
15674;BME280;7937;48.090;16.212;2023-05-11T01:49:12;97633.06;;;11.50;66.76
15674;BME280;7937;48.090;16.212;2023-05-11T01:52:17;97631.16;;;11.46;66.50
15674;BME280;7937;48.090;16.212;2023-05-11T01:55:22;97643.19;;;11.48;66.46
15674;BME280;7937;48.090;16.212;2023-05-11T01:58:26;97638.91;;;11.47;66.39
15674;BME280;7937;48.090;16.212;2023-05-11T02:01:29;97640.03;;;11.51;65.81
15674;BME280;7937;48.090;16.212;2023-05-11T02:04:34;97647.16;;;11.46;66.71
15674;BME280;7937;48.090;16.212;2023-05-11T02:07:37;97640.69;;;11.42;67.04
15674;BME280;7937;48.090;16.212;2023-05-11T02:10:43;97645.50;;;11.40;66.57
15674;BME280;7937;48.090;16.212;2023-05-11T02:13:48;97633.44;;;11.37;66.96
15674;BME280;7937;48.090;16.212;2023-05-11T02:16:53;97646.47;;;11.33;67.57
15674;BME280;7937;48.090;16.212;2023-05-11T02:19:59;97647.44;;;11.27;67.59
15674;BME280;7937;48.090;16.212;2023-05-11T02:23:04;97645.59;;;11.28;67.56
15674;BME280;7937;48.090;16.212;2023-05-11T02:26:08;97650.38;;;11.26;67.54
15674;BME280;7937;48.090;16.212;2023-05-11T02:29:12;97648.38;;;11.16;69.39
15674;BME280;7937;48.090;16.212;2023-05-11T02:32:20;97640.78;;;11.08;69.19
15674;BME280;7937;48.090;16.212;2023-05-11T02:35:24;97646.13;;;11.08;68.99
15674;BME280;7937;48.090;16.212;2023-05-11T02:38:32;97647.19;;;11.07;68.89
15674;BME280;7937;48.090;16.212;2023-05-11T02:41:43;97641.78;;;11.02;69.60
15674;BME280;7937;48.090;16.212;2023-05-11T02:45:06;97647.63;;;10.99;69.90
15674;BME280;7937;48.090;16.212;2023-05-11T02:48:18;97642.50;;;10.97;69.58
15674;BME280;7937;48.090;16.212;2023-05-11T02:51:36;97645.09;;;10.92;69.99
15674;BME280;7937;48.090;16.212;2023-05-11T02:54:41;97648.56;;;10.93;70.08
15674;BME280;7937;48.090;16.212;2023-05-11T02:57:44;97649.63;;;10.92;69.63
15674;BME280;7937;48.090;16.212;2023-05-11T03:00:47;97645.91;;;10.93;69.70
15674;BME280;7937;48.090;16.212;2023-05-11T03:03:50;97655.75;;;10.92;70.12
15674;BME280;7937;48.090;16.212;2023-05-11T03:06:52;97653.03;;;10.87;70.38
15674;BME280;7937;48.090;16.212;2023-05-11T03:09:54;97649.47;;;10.81;71.05
15674;BME280;7937;48.090;16.212;2023-05-11T03:12:57;97650.78;;;10.79;70.75
15674;BME280;7937;48.090;16.212;2023-05-11T03:16:01;97649.66;;;10.75;71.41
15674;BME280;7937;48.090;16.212;2023-05-11T03:19:06;97651.75;;;10.73;71.27
15674;BME280;7937;48.090;16.212;2023-05-11T03:22:09;97652.00;;;10.71;71.71
15674;BME280;7937;48.090;16.212;2023-05-11T03:25:14;97647.47;;;10.72;71.32
15674;BME280;7937;48.090;16.212;2023-05-11T03:28:18;97642.88;;;10.67;71.87
15674;BME280;7937;48.090;16.212;2023-05-11T03:31:34;97641.97;;;10.62;72.31
15674;BME280;7937;48.090;16.212;2023-05-11T03:34:37;97647.78;;;10.58;72.07
15674;BME280;7937;48.090;16.212;2023-05-11T03:37:40;97638.78;;;10.59;72.13
15674;BME280;7937;48.090;16.212;2023-05-11T03:40:44;97643.28;;;10.59;72.61
15674;BME280;7937;48.090;16.212;2023-05-11T03:43:50;97642.72;;;10.57;71.89
15674;BME280;7937;48.090;16.212;2023-05-11T03:46:55;97639.25;;;10.56;71.75
15674;BME280;7937;48.090;16.212;2023-05-11T03:49:59;97625.50;;;10.48;72.35
15674;BME280;7937;48.090;16.212;2023-05-11T03:53:03;97642.72;;;10.57;72.09
15674;BME280;7937;48.090;16.212;2023-05-11T03:56:06;97630.19;;;10.57;71.67
15674;BME280;7937;48.090;16.212;2023-05-11T03:59:08;97638.78;;;10.59;72.42
15674;BME280;7937;48.090;16.212;2023-05-11T04:02:14;97623.19;;;10.51;72.26
15674;BME280;7937;48.090;16.212;2023-05-11T04:05:17;97635.03;;;10.61;72.61
15674;BME280;7937;48.090;16.212;2023-05-11T04:08:20;97642.47;;;10.58;72.33
15674;BME280;7937;48.090;16.212;2023-05-11T04:11:22;97651.50;;;10.57;72.62
15674;BME280;7937;48.090;16.212;2023-05-11T04:14:25;97644.56;;;10.56;71.97
15674;BME280;7937;48.090;16.212;2023-05-11T04:17:27;97644.31;;;10.58;72.53
15674;BME280;7937;48.090;16.212;2023-05-11T04:20:30;97640.84;;;10.57;73.29
15674;BME280;7937;48.090;16.212;2023-05-11T04:23:33;97647.31;;;10.62;73.31
15674;BME280;7937;48.090;16.212;2023-05-11T04:26:35;97648.13;;;10.62;73.20
15674;BME280;7937;48.090;16.212;2023-05-11T04:29:38;97652.47;;;10.68;72.59
15674;BME280;7937;48.090;16.212;2023-05-11T04:32:40;97646.66;;;10.71;71.58
15674;BME280;7937;48.090;16.212;2023-05-11T04:35:43;97659.09;;;10.82;71.11
15674;BME280;7937;48.090;16.212;2023-05-11T04:38:46;97662.16;;;10.91;71.10
15674;BME280;7937;48.090;16.212;2023-05-11T04:41:49;97662.22;;;10.96;71.42
15674;BME280;7937;48.090;16.212;2023-05-11T04:44:55;97660.22;;;11.03;71.23
15674;BME280;7937;48.090;16.212;2023-05-11T04:47:57;97661.31;;;11.07;70.81
15674;BME280;7937;48.090;16.212;2023-05-11T04:51:02;97661.16;;;11.14;71.09
15674;BME280;7937;48.090;16.212;2023-05-11T04:54:06;97662.03;;;11.20;69.81
15674;BME280;7937;48.090;16.212;2023-05-11T04:57:08;97662.41;;;11.28;69.40
15674;BME280;7937;48.090;16.212;2023-05-11T05:00:10;97662.22;;;11.35;68.80
15674;BME280;7937;48.090;16.212;2023-05-11T05:03:13;97671.09;;;11.41;68.02
15674;BME280;7937;48.090;16.212;2023-05-11T05:06:16;97665.50;;;11.42;65.27
15674;BME280;7937;48.090;16.212;2023-05-11T05:09:18;97670.09;;;11.47;66.36
15674;BME280;7937;48.090;16.212;2023-05-11T05:12:20;97660.81;;;11.49;65.17
15674;BME280;7937;48.090;16.212;2023-05-11T05:15:22;97672.28;;;11.50;65.18
15674;BME280;7937;48.090;16.212;2023-05-11T05:18:24;97677.69;;;11.55;65.23
15674;BME280;7937;48.090;16.212;2023-05-11T05:21:28;97670.56;;;11.60;65.83
15674;BME280;7937;48.090;16.212;2023-05-11T05:24:30;97672.16;;;11.61;65.85
15674;BME280;7937;48.090;16.212;2023-05-11T05:27:32;97678.63;;;11.66;66.31
15674;BME280;7937;48.090;16.212;2023-05-11T05:30:39;97670.13;;;11.69;66.80
15674;BME280;7937;48.090;16.212;2023-05-11T05:33:42;97678.25;;;11.79;65.84
15674;BME280;7937;48.090;16.212;2023-05-11T05:36:44;97677.75;;;11.82;66.24
15674;BME280;7937;48.090;16.212;2023-05-11T05:39:47;97671.84;;;11.80;64.65
15674;BME280;7937;48.090;16.212;2023-05-11T05:42:50;97681.88;;;11.90;64.95
15674;BME280;7937;48.090;16.212;2023-05-11T05:45:55;97677.81;;;11.87;64.75
15674;BME280;7937;48.090;16.212;2023-05-11T05:49:00;97683.25;;;11.92;64.31
15674;BME280;7937;48.090;16.212;2023-05-11T05:52:03;97688.91;;;12.01;65.18
15674;BME280;7937;48.090;16.212;2023-05-11T05:55:06;97688.16;;;12.05;64.95
15674;BME280;7937;48.090;16.212;2023-05-11T05:58:08;97694.53;;;11.99;64.22
15674;BME280;7937;48.090;16.212;2023-05-11T06:01:11;97687.38;;;12.05;64.29
15674;BME280;7937;48.090;16.212;2023-05-11T06:04:13;97697.09;;;12.16;64.94
15674;BME280;7937;48.090;16.212;2023-05-11T06:07:16;97699.88;;;12.26;63.38
15674;BME280;7937;48.090;16.212;2023-05-11T06:10:18;97693.97;;;12.24;62.50
15674;BME280;7937;48.090;16.212;2023-05-11T06:13:21;97691.09;;;12.31;63.16
15674;BME280;7937;48.090;16.212;2023-05-11T06:16:23;97698.34;;;12.35;62.86
15674;BME280;7937;48.090;16.212;2023-05-11T06:19:29;97701.28;;;12.34;62.12
15674;BME280;7937;48.090;16.212;2023-05-11T06:22:34;97693.69;;;12.48;61.14
15674;BME280;7937;48.090;16.212;2023-05-11T06:25:37;97688.47;;;12.36;61.00
15674;BME280;7937;48.090;16.212;2023-05-11T06:28:41;97701.47;;;12.54;60.96
15674;BME280;7937;48.090;16.212;2023-05-11T06:31:47;97704.59;;;12.46;61.43
15674;BME280;7937;48.090;16.212;2023-05-11T06:34:54;97710.56;;;12.53;62.35
15674;BME280;7937;48.090;16.212;2023-05-11T06:37:58;97704.91;;;12.50;61.33
15674;BME280;7937;48.090;16.212;2023-05-11T06:41:00;97709.75;;;12.53;61.55
15674;BME280;7937;48.090;16.212;2023-05-11T06:44:02;97701.81;;;12.63;61.49
15674;BME280;7937;48.090;16.212;2023-05-11T06:47:10;97711.81;;;12.73;61.29
15674;BME280;7937;48.090;16.212;2023-05-11T06:50:12;97712.47;;;12.90;60.34
15674;BME280;7937;48.090;16.212;2023-05-11T06:53:14;97707.06;;;12.85;60.76
15674;BME280;7937;48.090;16.212;2023-05-11T06:56:18;97711.47;;;12.96;61.08
15674;BME280;7937;48.090;16.212;2023-05-11T06:59:21;97705.00;;;12.92;60.40
15674;BME280;7937;48.090;16.212;2023-05-11T07:02:23;97706.34;;;12.95;60.96
15674;BME280;7937;48.090;16.212;2023-05-11T07:05:26;97698.34;;;13.00;60.40
15674;BME280;7937;48.090;16.212;2023-05-11T07:08:28;97697.56;;;12.99;61.19
15674;BME280;7937;48.090;16.212;2023-05-11T07:11:30;97689.63;;;13.14;60.34
15674;BME280;7937;48.090;16.212;2023-05-11T07:14:33;97695.06;;;13.25;60.48
15674;BME280;7937;48.090;16.212;2023-05-11T07:17:35;97696.16;;;13.24;60.62
15674;BME280;7937;48.090;16.212;2023-05-11T07:20:37;97687.66;;;13.32;59.89
15674;BME280;7937;48.090;16.212;2023-05-11T07:23:40;97686.59;;;13.38;60.06
15674;BME280;7937;48.090;16.212;2023-05-11T07:26:43;97687.69;;;13.42;58.95
15674;BME280;7937;48.090;16.212;2023-05-11T07:29:46;97695.47;;;13.49;58.80
15674;BME280;7937;48.090;16.212;2023-05-11T07:32:48;97688.84;;;13.56;58.24
15674;BME280;7937;48.090;16.212;2023-05-11T07:35:51;97680.78;;;13.51;57.54
15674;BME280;7937;48.090;16.212;2023-05-11T07:38:53;97692.34;;;13.62;58.34
15674;BME280;7937;48.090;16.212;2023-05-11T07:41:55;97691.59;;;13.77;57.64
15674;BME280;7937;48.090;16.212;2023-05-11T07:44:58;97691.34;;;13.78;59.50
15674;BME280;7937;48.090;16.212;2023-05-11T07:48:00;97685.22;;;13.88;55.91
15674;BME280;7937;48.090;16.212;2023-05-11T07:51:02;97686.81;;;13.84;56.62
15674;BME280;7937;48.090;16.212;2023-05-11T07:54:04;97693.53;;;13.91;56.64
15674;BME280;7937;48.090;16.212;2023-05-11T07:57:07;97680.44;;;14.00;56.76
15674;BME280;7937;48.090;16.212;2023-05-11T08:00:10;97691.47;;;14.09;57.02
15674;BME280;7937;48.090;16.212;2023-05-11T08:03:12;97689.63;;;14.25;56.99
15674;BME280;7937;48.090;16.212;2023-05-11T08:06:15;97699.81;;;14.43;57.28
15674;BME280;7937;48.090;16.212;2023-05-11T08:09:17;97692.38;;;14.55;54.56
15674;BME280;7937;48.090;16.212;2023-05-11T08:12:20;97698.00;;;14.59;54.60
15674;BME280;7937;48.090;16.212;2023-05-11T08:15:22;97690.44;;;14.45;53.68
15674;BME280;7937;48.090;16.212;2023-05-11T08:18:24;97693.44;;;14.54;54.25
15674;BME280;7937;48.090;16.212;2023-05-11T08:21:26;97696.38;;;14.48;54.31
15674;BME280;7937;48.090;16.212;2023-05-11T08:24:28;97699.06;;;14.58;56.76
15674;BME280;7937;48.090;16.212;2023-05-11T08:27:30;97700.94;;;14.78;54.24
15674;BME280;7937;48.090;16.212;2023-05-11T08:30:33;97699.91;;;14.89;52.45
15674;BME280;7937;48.090;16.212;2023-05-11T08:33:35;97691.84;;;14.89;52.69
15674;BME280;7937;48.090;16.212;2023-05-11T08:36:39;97690.22;;;14.78;53.36
15674;BME280;7937;48.090;16.212;2023-05-11T08:39:41;97706.59;;;14.86;53.92
15674;BME280;7937;48.090;16.212;2023-05-11T08:42:50;97688.59;;;15.07;52.29
15674;BME280;7937;48.090;16.212;2023-05-11T08:45:56;97688.88;;;15.06;54.74
15674;BME280;7937;48.090;16.212;2023-05-11T08:49:02;97689.94;;;15.00;54.38
15674;BME280;7937;48.090;16.212;2023-05-11T08:52:05;97696.63;;;15.07;54.32
15674;BME280;7937;48.090;16.212;2023-05-11T08:55:09;97693.41;;;15.15;52.10
15674;BME280;7937;48.090;16.212;2023-05-11T08:58:12;97686.19;;;15.06;52.43
15674;BME280;7937;48.090;16.212;2023-05-11T09:01:21;97679.97;;;15.26;52.37
15674;BME280;7937;48.090;16.212;2023-05-11T09:04:24;97682.66;;;15.26;53.38
15674;BME280;7937;48.090;16.212;2023-05-11T09:07:28;97679.72;;;15.17;51.89
15674;BME280;7937;48.090;16.212;2023-05-11T09:10:31;97666.53;;;15.31;51.58
15674;BME280;7937;48.090;16.212;2023-05-11T09:13:33;97669.44;;;15.49;52.63
15674;BME280;7937;48.090;16.212;2023-05-11T09:16:35;97681.47;;;15.78;52.19
15674;BME280;7937;48.090;16.212;2023-05-11T09:19:58;97670.13;;;15.86;49.03
15674;BME280;7937;48.090;16.212;2023-05-11T09:23:01;97673.88;;;15.90;50.46
15674;BME280;7937;48.090;16.212;2023-05-11T09:26:03;97670.41;;;15.89;47.59
15674;BME280;7937;48.090;16.212;2023-05-11T09:29:05;97660.94;;;16.02;49.28
15674;BME280;7937;48.090;16.212;2023-05-11T09:32:08;97667.66;;;15.99;48.02
15674;BME280;7937;48.090;16.212;2023-05-11T09:35:21;97662.03;;;15.91;47.03
15674;BME280;7937;48.090;16.212;2023-05-11T09:38:23;97690.03;;;15.80;49.08
15674;BME280;7937;48.090;16.212;2023-05-11T09:41:26;97677.47;;;15.65;48.21
15674;BME280;7937;48.090;16.212;2023-05-11T09:44:36;97659.22;;;15.62;48.10
15674;BME280;7937;48.090;16.212;2023-05-11T09:47:38;97675.25;;;15.87;50.62
15674;BME280;7937;48.090;16.212;2023-05-11T09:50:44;97646.19;;;15.94;47.61
15674;BME280;7937;48.090;16.212;2023-05-11T09:53:47;97651.53;;;15.99;48.04
15674;BME280;7937;48.090;16.212;2023-05-11T09:56:51;97649.47;;;16.31;51.30
15674;BME280;7937;48.090;16.212;2023-05-11T09:59:58;97643.06;;;16.61;49.42
15674;BME280;7937;48.090;16.212;2023-05-11T10:03:04;97655.38;;;16.67;46.01
15674;BME280;7937;48.090;16.212;2023-05-11T10:06:06;97637.81;;;16.45;47.19
15674;BME280;7937;48.090;16.212;2023-05-11T10:09:09;97634.53;;;16.48;47.56
15674;BME280;7937;48.090;16.212;2023-05-11T10:12:12;97634.75;;;16.57;48.24
15674;BME280;7937;48.090;16.212;2023-05-11T10:15:17;97630.44;;;16.61;45.82
15674;BME280;7937;48.090;16.212;2023-05-11T10:18:26;97630.31;;;16.42;46.25
15674;BME280;7937;48.090;16.212;2023-05-11T10:21:28;97634.41;;;16.30;47.95
15674;BME280;7937;48.090;16.212;2023-05-11T10:24:31;97617.81;;;16.22;47.88
15674;BME280;7937;48.090;16.212;2023-05-11T10:27:35;97620.09;;;16.39;45.17
15674;BME280;7937;48.090;16.212;2023-05-11T10:30:39;97611.25;;;16.34;45.59
15674;BME280;7937;48.090;16.212;2023-05-11T10:33:43;97618.44;;;16.43;44.01
15674;BME280;7937;48.090;16.212;2023-05-11T10:36:51;97609.34;;;16.73;42.41
15674;BME280;7937;48.090;16.212;2023-05-11T10:39:53;97616.28;;;16.80;43.01
15674;BME280;7937;48.090;16.212;2023-05-11T10:50:09;97614.13;;;16.82;42.78
15674;BME280;7937;48.090;16.212;2023-05-11T10:57:12;97610.69;;;16.76;41.76
15674;BME280;7937;48.090;16.212;2023-05-11T11:03:57;97595.16;;;17.21;41.40
15674;BME280;7937;48.090;16.212;2023-05-11T11:07:04;97591.00;;;17.28;42.19
15674;BME280;7937;48.090;16.212;2023-05-11T11:10:07;97587.59;;;17.23;42.03
15674;BME280;7937;48.090;16.212;2023-05-11T11:13:13;97586.53;;;17.43;41.91
15674;BME280;7937;48.090;16.212;2023-05-11T11:16:16;97576.94;;;17.37;40.45
15674;BME280;7937;48.090;16.212;2023-05-11T11:25:50;97560.03;;;17.07;42.42
15674;BME280;7937;48.090;16.212;2023-05-11T11:35:44;97579.19;;;17.06;41.68
15674;BME280;7937;48.090;16.212;2023-05-11T11:38:57;97574.72;;;16.96;42.76
15674;BME280;7937;48.090;16.212;2023-05-11T11:42:05;97575.56;;;16.91;42.33
15674;BME280;7937;48.090;16.212;2023-05-11T11:45:51;97579.84;;;16.92;42.72
15674;BME280;7937;48.090;16.212;2023-05-11T11:49:06;97576.84;;;16.94;42.85
15674;BME280;7937;48.090;16.212;2023-05-11T11:55:46;97574.47;;;16.92;42.29
15674;BME280;7937;48.090;16.212;2023-05-11T12:01:54;97565.50;;;16.73;43.01
15674;BME280;7937;48.090;16.212;2023-05-11T12:05:16;97574.25;;;16.55;41.82
15674;BME280;7937;48.090;16.212;2023-05-11T12:08:22;97567.31;;;16.48;42.63
15674;BME280;7937;48.090;16.212;2023-05-11T12:11:25;97577.38;;;16.67;43.90
15674;BME280;7937;48.090;16.212;2023-05-11T12:14:30;97579.03;;;16.92;41.78
15674;BME280;7937;48.090;16.212;2023-05-11T12:17:37;97558.25;;;16.73;43.62
15674;BME280;7937;48.090;16.212;2023-05-11T12:20:39;97567.00;;;16.55;44.44
15674;BME280;7937;48.090;16.212;2023-05-11T12:23:50;97567.91;;;16.45;44.58
15674;BME280;7937;48.090;16.212;2023-05-11T12:26:56;97559.53;;;16.47;44.30
15674;BME280;7937;48.090;16.212;2023-05-11T12:29:58;97546.84;;;16.52;44.31
15674;BME280;7937;48.090;16.212;2023-05-11T12:33:01;97556.22;;;16.60;44.68
15674;BME280;7937;48.090;16.212;2023-05-11T12:36:07;97551.00;;;16.69;42.72
15674;BME280;7937;48.090;16.212;2023-05-11T12:39:16;97561.28;;;16.62;42.40
15674;BME280;7937;48.090;16.212;2023-05-11T12:42:19;97544.97;;;16.53;42.47
15674;BME280;7937;48.090;16.212;2023-05-11T12:45:22;97549.03;;;16.50;42.45
15674;BME280;7937;48.090;16.212;2023-05-11T12:48:25;97550.66;;;16.81;41.51
15674;BME280;7937;48.090;16.212;2023-05-11T12:51:51;97551.00;;;16.69;41.68
15674;BME280;7937;48.090;16.212;2023-05-11T12:54:53;97534.81;;;16.74;40.80
15674;BME280;7937;48.090;16.212;2023-05-11T12:58:10;97532.31;;;16.83;40.33
15674;BME280;7937;48.090;16.212;2023-05-11T13:01:13;97535.19;;;16.91;41.12
15674;BME280;7937;48.090;16.212;2023-05-11T13:04:15;97532.63;;;17.05;42.17
15674;BME280;7937;48.090;16.212;2023-05-11T13:07:26;97528.94;;;17.20;42.61
15674;BME280;7937;48.090;16.212;2023-05-11T13:10:29;97511.41;;;17.22;42.12
15674;BME280;7937;48.090;16.212;2023-05-11T13:13:31;97520.50;;;17.26;39.92
15674;BME280;7937;48.090;16.212;2023-05-11T13:16:34;97510.38;;;17.18;39.53
15674;BME280;7937;48.090;16.212;2023-05-11T13:19:36;97517.94;;;17.16;40.52
15674;BME280;7937;48.090;16.212;2023-05-11T13:22:40;97513.25;;;17.03;40.65
15674;BME280;7937;48.090;16.212;2023-05-11T13:28:50;97514.22;;;17.12;41.00
15674;BME280;7937;48.090;16.212;2023-05-11T13:32:10;97510.16;;;17.15;40.75
15674;BME280;7937;48.090;16.212;2023-05-11T13:35:14;97509.81;;;17.21;41.19
15674;BME280;7937;48.090;16.212;2023-05-11T13:38:17;97516.84;;;17.17;41.09
15674;BME280;7937;48.090;16.212;2023-05-11T13:41:19;97507.81;;;17.08;42.57
15674;BME280;7937;48.090;16.212;2023-05-11T13:44:21;97513.03;;;16.99;42.28
15674;BME280;7937;48.090;16.212;2023-05-11T13:47:23;97509.88;;;16.92;43.48
15674;BME280;7937;48.090;16.212;2023-05-11T13:50:26;97501.56;;;16.89;41.52
15674;BME280;7937;48.090;16.212;2023-05-11T13:53:28;97504.84;;;16.86;41.36
15674;BME280;7937;48.090;16.212;2023-05-11T13:56:30;97502.66;;;16.88;41.86
15674;BME280;7937;48.090;16.212;2023-05-11T13:59:32;97500.34;;;16.81;43.79
15674;BME280;7937;48.090;16.212;2023-05-11T14:02:35;97503.09;;;16.71;44.77
15674;BME280;7937;48.090;16.212;2023-05-11T14:05:37;97499.72;;;16.60;44.50
15674;BME280;7937;48.090;16.212;2023-05-11T14:08:40;97495.50;;;16.49;43.92
15674;BME280;7937;48.090;16.212;2023-05-11T14:11:42;97485.91;;;16.43;42.22
15674;BME280;7937;48.090;16.212;2023-05-11T14:14:44;97492.78;;;16.54;42.25
15674;BME280;7937;48.090;16.212;2023-05-11T14:17:46;97486.22;;;16.65;41.72
15674;BME280;7937;48.090;16.212;2023-05-11T14:20:49;97486.88;;;16.81;43.34
15674;BME280;7937;48.090;16.212;2023-05-11T14:23:52;97482.97;;;16.92;41.82
15674;BME280;7937;48.090;16.212;2023-05-11T14:27:12;97482.69;;;16.94;42.32
15674;BME280;7937;48.090;16.212;2023-05-11T14:30:14;97501.25;;;16.95;42.27
15674;BME280;7937;48.090;16.212;2023-05-11T14:33:16;97480.84;;;16.89;41.70
15674;BME280;7937;48.090;16.212;2023-05-11T14:36:19;97483.59;;;16.84;42.35
15674;BME280;7937;48.090;16.212;2023-05-11T14:39:21;97489.81;;;16.85;43.04
15674;BME280;7937;48.090;16.212;2023-05-11T14:42:23;97492.19;;;16.86;43.43
15674;BME280;7937;48.090;16.212;2023-05-11T14:45:25;97469.28;;;16.89;39.62
15674;BME280;7937;48.090;16.212;2023-05-11T14:48:28;97480.59;;;16.91;39.56
15674;BME280;7937;48.090;16.212;2023-05-11T14:51:30;97492.66;;;16.93;39.66
15674;BME280;7937;48.090;16.212;2023-05-11T14:54:33;97487.06;;;16.90;39.80
15674;BME280;7937;48.090;16.212;2023-05-11T14:57:36;97480.84;;;16.89;42.08
15674;BME280;7937;48.090;16.212;2023-05-11T15:00:38;97475.38;;;16.75;40.88
15674;BME280;7937;48.090;16.212;2023-05-11T15:03:42;97486.88;;;16.81;41.40
15674;BME280;7937;48.090;16.212;2023-05-11T15:06:45;97481.75;;;16.80;40.50
15674;BME280;7937;48.090;16.212;2023-05-11T15:09:47;97482.41;;;16.71;41.56
15674;BME280;7937;48.090;16.212;2023-05-11T15:12:51;97478.91;;;16.71;41.74
15674;BME280;7937;48.090;16.212;2023-05-11T15:15:53;97479.47;;;16.68;41.83
15674;BME280;7937;48.090;16.212;2023-05-11T15:18:57;97475.72;;;16.64;41.72
15674;BME280;7937;48.090;16.212;2023-05-11T15:22:00;97477.91;;;16.62;42.71
15674;BME280;7937;48.090;16.212;2023-05-11T15:25:02;97479.00;;;16.61;41.55
15674;BME280;7937;48.090;16.212;2023-05-11T15:28:05;97452.59;;;16.39;43.23
15674;BME280;7937;48.090;16.212;2023-05-11T15:31:07;97478.09;;;16.46;42.93
15674;BME280;7937;48.090;16.212;2023-05-11T15:34:09;97483.22;;;16.43;41.95
15674;BME280;7937;48.090;16.212;2023-05-11T15:37:11;97484.59;;;16.40;42.31
15674;BME280;7937;48.090;16.212;2023-05-11T15:40:13;97481.09;;;16.40;41.16
15674;BME280;7937;48.090;16.212;2023-05-11T15:43:15;97481.03;;;16.45;41.07
15674;BME280;7937;48.090;16.212;2023-05-11T15:46:17;97489.16;;;16.40;40.85
15674;BME280;7937;48.090;16.212;2023-05-11T15:49:20;97490.81;;;16.36;41.31
15674;BME280;7937;48.090;16.212;2023-05-11T15:52:23;97483.88;;;16.30;41.70
15674;BME280;7937;48.090;16.212;2023-05-11T15:55:25;97484.66;;;16.30;39.61
15674;BME280;7937;48.090;16.212;2023-05-11T15:58:27;97486.81;;;16.33;39.35
15674;BME280;7937;48.090;16.212;2023-05-11T16:01:31;97497.31;;;16.30;40.97
15674;BME280;7937;48.090;16.212;2023-05-11T16:04:33;97480.69;;;16.28;40.90
15674;BME280;7937;48.090;16.212;2023-05-11T16:07:36;97486.81;;;16.33;39.93
15674;BME280;7937;48.090;16.212;2023-05-11T16:10:39;97484.91;;;16.34;41.17
15674;BME280;7937;48.090;16.212;2023-05-11T16:13:41;97491.94;;;16.30;41.77
15674;BME280;7937;48.090;16.212;2023-05-11T16:16:43;97488.75;;;16.28;40.91
15674;BME280;7937;48.090;16.212;2023-05-11T16:19:46;97495.72;;;16.29;40.92
15674;BME280;7937;48.090;16.212;2023-05-11T16:22:48;97492.53;;;16.27;41.42
15674;BME280;7937;48.090;16.212;2023-05-11T16:25:51;97492.81;;;16.20;41.81
15674;BME280;7937;48.090;16.212;2023-05-11T16:28:54;97488.53;;;16.19;43.49
15674;BME280;7937;48.090;16.212;2023-05-11T16:31:57;97484.00;;;16.14;42.58
15674;BME280;7937;48.090;16.212;2023-05-11T16:34:59;97488.63;;;16.09;42.74
15674;BME280;7937;48.090;16.212;2023-05-11T16:38:01;97495.91;;;16.08;40.69
15674;BME280;7937;48.090;16.212;2023-05-11T16:41:04;97485.94;;;16.09;39.88
15674;BME280;7937;48.090;16.212;2023-05-11T16:44:06;97494.53;;;16.11;39.34
15674;BME280;7937;48.090;16.212;2023-05-11T16:47:08;97494.00;;;16.09;40.14
15674;BME280;7937;48.090;16.212;2023-05-11T16:50:10;97493.00;;;15.99;41.52
15674;BME280;7937;48.090;16.212;2023-05-11T16:53:17;97496.56;;;15.90;43.61
15674;BME280;7937;48.090;16.212;2023-05-11T16:56:23;97489.72;;;15.73;45.83
15674;BME280;7937;48.090;16.212;2023-05-11T16:59:25;97460.09;;;15.39;46.76
15674;BME280;7937;48.090;16.212;2023-05-11T17:02:27;97495.75;;;15.50;46.59
15674;BME280;7937;48.090;16.212;2023-05-11T17:05:30;97492.28;;;15.44;47.84
15674;BME280;7937;48.090;16.212;2023-05-11T17:08:33;97486.16;;;15.39;46.51